createdAt,value
2019-01-25T00:01:04.946Z,-3.50
2019-01-25T00:03:52.975Z,-3.40
2019-01-25T00:06:40.727Z,-3.50
2019-01-25T00:09:28.737Z,-3.50
2019-01-25T00:12:16.207Z,-3.50
2019-01-25T00:15:06.301Z,-3.50
2019-01-25T00:17:54.268Z,-3.50
2019-01-25T00:20:41.741Z,-3.50
2019-01-25T00:23:29.752Z,-3.50
2019-01-25T00:26:17.532Z,-3.50
2019-01-25T00:29:05.816Z,-3.50
2019-01-25T00:31:53.811Z,-3.50
2019-01-25T00:34:41.783Z,-3.50
2019-01-25T00:37:29.802Z,-3.50
2019-01-25T00:40:18.496Z,-3.60
2019-01-25T00:43:06.170Z,-3.70
2019-01-25T00:45:53.593Z,-3.60
2019-01-25T00:48:41.210Z,-3.50
2019-01-25T00:51:28.841Z,-3.40
2019-01-25T00:54:16.525Z,-3.30
2019-01-25T00:57:04.624Z,-3.20
2019-01-25T00:59:52.577Z,-3.20
2019-01-25T01:02:40.660Z,-3.10
2019-01-25T01:05:28.038Z,-3.10
2019-01-25T01:08:16.097Z,-3.00
2019-01-25T01:11:04.013Z,-3.00
2019-01-25T01:13:51.407Z,-2.90
2019-01-25T01:16:39.036Z,-3.00
2019-01-25T01:19:26.820Z,-2.90
2019-01-25T01:22:15.029Z,-2.90
2019-01-25T01:25:02.585Z,-3.00
2019-01-25T01:27:50.145Z,-3.10
2019-01-25T01:30:37.822Z,-3.20
2019-01-25T01:33:25.945Z,-3.20
2019-01-25T01:36:13.614Z,-3.30
2019-01-25T01:39:01.564Z,-3.30
2019-01-25T01:41:49.413Z,-3.30
2019-01-25T01:44:41.570Z,-3.40
2019-01-25T01:47:29.385Z,-3.50
2019-01-25T01:50:17.619Z,-3.60
2019-01-25T01:53:05.458Z,-3.60
2019-01-25T01:55:53.242Z,-3.70
2019-01-25T01:58:41.120Z,-3.70
2019-01-25T02:01:29.249Z,-3.70
2019-01-25T02:04:17.034Z,-3.60
2019-01-25T02:07:04.642Z,-3.60
2019-01-25T02:09:52.818Z,-3.60
2019-01-25T02:12:40.786Z,-3.60
2019-01-25T02:15:28.486Z,-3.60
2019-01-25T02:18:16.165Z,-3.80
2019-01-25T02:21:05.680Z,-3.80
2019-01-25T02:23:53.319Z,-3.80
2019-01-25T02:26:41.200Z,-3.80
2019-01-25T02:29:29.083Z,-3.80
2019-01-25T02:32:17.389Z,-3.80
2019-01-25T02:35:05.637Z,-3.80
2019-01-25T02:37:53.600Z,-3.80
2019-01-25T02:40:42.095Z,-3.80
2019-01-25T02:43:29.814Z,-3.80
2019-01-25T02:46:17.579Z,-3.80
2019-01-25T02:49:05.265Z,-3.80
2019-01-25T02:51:53.173Z,-3.80
2019-01-25T02:54:41.108Z,-3.70
2019-01-25T02:57:28.425Z,-3.60
2019-01-25T03:00:21.514Z,-3.50
2019-01-25T03:03:09.136Z,-3.40
2019-01-25T03:05:56.826Z,-3.40
2019-01-25T03:08:46.602Z,-3.40
2019-01-25T03:11:35.010Z,-3.40
2019-01-25T03:14:22.971Z,-3.50
2019-01-25T03:17:11.072Z,-3.70
2019-01-25T03:19:59.315Z,-3.70
2019-01-25T03:22:47.161Z,-3.90
2019-01-25T03:25:34.944Z,-4.00
2019-01-25T03:28:23.141Z,-4.20
2019-01-25T03:31:11.291Z,-4.20
2019-01-25T03:33:59.366Z,-4.20
2019-01-25T03:36:47.165Z,-4.20
2019-01-25T03:39:35.191Z,-4.20
2019-01-25T03:42:22.928Z,-4.10
2019-01-25T03:45:11.371Z,-4.10
2019-01-25T03:47:59.236Z,-4.00
2019-01-25T03:50:46.903Z,-4.00
2019-01-25T03:53:35.312Z,-4.00
2019-01-25T03:56:22.882Z,-4.00
2019-01-25T03:59:10.764Z,-4.00
2019-01-25T04:01:59.129Z,-4.00
2019-01-25T04:04:47.056Z,-4.10
2019-01-25T04:07:34.696Z,-4.10
2019-01-25T04:10:24.416Z,-4.20
2019-01-25T04:13:12.486Z,-4.30
2019-01-25T04:16:00.565Z,-4.30
2019-01-25T04:18:48.772Z,-4.30
2019-01-25T04:21:36.485Z,-4.20
2019-01-25T04:24:24.413Z,-4.10
2019-01-25T04:27:12.264Z,-4.10
2019-01-25T04:30:00.284Z,-4.10
2019-01-25T04:32:48.022Z,-4.10
2019-01-25T04:35:35.840Z,-4.20
2019-01-25T04:38:23.823Z,-4.20
2019-01-25T04:41:12.116Z,-4.20
2019-01-25T04:44:00.095Z,-4.20
2019-01-25T04:46:48.140Z,-4.20
2019-01-25T04:49:39.738Z,-4.10
2019-01-25T04:52:27.743Z,-4.10
2019-01-25T04:55:21.926Z,-4.10
2019-01-25T04:58:15.242Z,-4.10
2019-01-25T05:01:10.525Z,-4.20
2019-01-25T05:03:58.310Z,-4.40
2019-01-25T05:06:45.997Z,-4.50
2019-01-25T05:09:38.738Z,-4.50
2019-01-25T05:12:26.801Z,-4.50
2019-01-25T05:15:14.705Z,-4.50
2019-01-25T05:18:02.721Z,-4.50
2019-01-25T05:20:50.839Z,-4.50
2019-01-25T05:23:38.737Z,-4.40
2019-01-25T05:26:26.545Z,-4.50
2019-01-25T05:29:14.062Z,-4.40
2019-01-25T05:32:05.640Z,-4.40
2019-01-25T05:34:53.993Z,-4.40
2019-01-25T05:37:42.044Z,-4.30
2019-01-25T05:40:30.153Z,-4.30
2019-01-25T05:43:18.105Z,-4.30
2019-01-25T05:46:05.807Z,-4.20
2019-01-25T05:48:54.289Z,-4.20
2019-01-25T05:51:42.054Z,-4.10
2019-01-25T05:54:30.173Z,-4.10
2019-01-25T05:57:18.275Z,-4.10
2019-01-25T06:00:10.234Z,-4.10
2019-01-25T06:03:05.848Z,-4.30
2019-01-25T06:06:05.676Z,-4.30
2019-01-25T06:08:54.106Z,-4.20
2019-01-25T06:11:41.639Z,-4.20
2019-01-25T06:14:29.131Z,-4.10
2019-01-25T06:17:17.094Z,-4.10
2019-01-25T06:20:06.117Z,-4.10
2019-01-25T06:22:56.332Z,-4.10
2019-01-25T06:25:45.506Z,-4.10
2019-01-25T06:28:33.538Z,-4.00
2019-01-25T06:31:21.754Z,-3.90
2019-01-25T06:34:09.733Z,-3.90
2019-01-25T06:36:57.822Z,-3.90
2019-01-25T06:39:45.785Z,-3.90
2019-01-25T06:42:33.405Z,-4.00
2019-01-25T06:45:21.716Z,-4.10
2019-01-25T06:48:09.813Z,-4.00
2019-01-25T06:50:57.613Z,-4.00
2019-01-25T06:53:45.556Z,-4.10
2019-01-25T06:56:33.670Z,-4.30
2019-01-25T06:59:29.668Z,-4.30
2019-01-25T07:02:21.931Z,-4.20
2019-01-25T07:05:10.094Z,-4.30
2019-01-25T07:07:57.697Z,-4.40
2019-01-25T07:10:45.999Z,-4.40
2019-01-25T07:13:33.476Z,-4.40
2019-01-25T07:16:21.679Z,-4.40
2019-01-25T07:19:09.179Z,-4.50
2019-01-25T07:21:57.453Z,-4.50
2019-01-25T07:24:46.789Z,-4.40
2019-01-25T07:27:35.461Z,-4.40
2019-01-25T07:30:23.239Z,-4.50
2019-01-25T07:33:10.901Z,-4.50
2019-01-25T07:35:58.795Z,-4.50
2019-01-25T07:38:46.272Z,-4.50
2019-01-25T07:41:33.989Z,-4.40
2019-01-25T07:44:22.202Z,-4.30
2019-01-25T07:47:10.227Z,-4.20
2019-01-25T07:49:57.820Z,-4.20
2019-01-25T07:52:45.736Z,-4.30
2019-01-25T07:55:33.701Z,-4.30
2019-01-25T07:58:20.923Z,-4.30
2019-01-25T08:01:09.163Z,-4.40
2019-01-25T08:03:56.534Z,-4.20
2019-01-25T08:06:43.895Z,-4.20
2019-01-25T08:09:31.666Z,-4.10
2019-01-25T08:12:19.303Z,-3.90
2019-01-25T08:15:09.541Z,-3.80
2019-01-25T08:17:57.018Z,-3.80
2019-01-25T08:20:45.358Z,-3.80
2019-01-25T08:23:33.492Z,-3.80
2019-01-25T08:26:21.417Z,-3.70
2019-01-25T08:29:09.321Z,-3.70
2019-01-25T08:31:57.050Z,-3.70
2019-01-25T08:34:45.618Z,-3.70
2019-01-25T08:37:33.331Z,-3.60
2019-01-25T08:40:21.542Z,-3.60
2019-01-25T08:43:09.810Z,-3.60
2019-01-25T08:45:58.022Z,-3.50
2019-01-25T08:48:45.893Z,-3.40
2019-01-25T08:51:33.721Z,-3.30
2019-01-25T08:54:21.855Z,-3.20
2019-01-25T08:57:10.244Z,-3.10
2019-01-25T08:59:57.673Z,-3.10
2019-01-25T09:02:45.683Z,-3.10
2019-01-25T09:05:33.419Z,-3.10
2019-01-25T09:08:21.113Z,-3.10
2019-01-25T09:11:08.721Z,-3.10
2019-01-25T09:13:56.684Z,-3.00
2019-01-25T09:16:44.666Z,-2.90
2019-01-25T09:19:32.944Z,-2.90
2019-01-25T09:22:20.508Z,-3.00
2019-01-25T09:25:08.624Z,-3.10
2019-01-25T09:27:56.088Z,-3.10
2019-01-25T09:30:44.136Z,-3.20
2019-01-25T09:33:31.748Z,-3.30
2019-01-25T09:36:19.680Z,-3.30
2019-01-25T09:39:09.480Z,-3.50
2019-01-25T09:41:57.420Z,-3.50
2019-01-25T09:44:45.356Z,-3.40
2019-01-25T09:47:33.438Z,-3.30
2019-01-25T09:50:21.293Z,-3.10
2019-01-25T09:53:09.110Z,-3.00
2019-01-25T09:55:57.070Z,-3.00
2019-01-25T09:58:46.544Z,-3.00
2019-01-25T10:01:34.601Z,-3.10
2019-01-25T10:04:22.321Z,-3.00
2019-01-25T10:07:10.835Z,-3.10
2019-01-25T10:09:58.801Z,-3.10
2019-01-25T10:12:46.996Z,-3.10
2019-01-25T10:15:34.734Z,-3.10
2019-01-25T10:18:24.813Z,-3.10
2019-01-25T10:21:12.503Z,-3.10
2019-01-25T10:24:00.298Z,-3.00
2019-01-25T10:26:47.847Z,-2.90
2019-01-25T10:29:36.480Z,-2.90
2019-01-25T10:32:24.332Z,-2.80
2019-01-25T10:35:12.412Z,-2.70
2019-01-25T10:38:00.461Z,-2.60
2019-01-25T10:40:48.789Z,-2.60
2019-01-25T10:43:36.811Z,-2.60
2019-01-25T10:46:24.648Z,-2.60
2019-01-25T10:49:12.564Z,-2.70
2019-01-25T10:52:00.768Z,-2.60
2019-01-25T10:54:48.751Z,-2.60
2019-01-25T10:57:37.309Z,-2.50
2019-01-25T11:00:25.247Z,-2.50
2019-01-25T11:03:13.020Z,-2.50
2019-01-25T11:06:00.427Z,-2.40
2019-01-25T11:08:48.330Z,-2.30
2019-01-25T11:11:36.051Z,-2.20
2019-01-25T11:14:24.044Z,-2.20
2019-01-25T11:17:12.198Z,-2.10
2019-01-25T11:20:00.382Z,-2.10
2019-01-25T11:22:48.109Z,-2.00
2019-01-25T11:25:37.918Z,-1.90
2019-01-25T11:28:25.848Z,-1.80
2019-01-25T11:31:13.439Z,-1.70
2019-01-25T11:34:00.784Z,-1.70
2019-01-25T11:36:48.852Z,-1.70
2019-01-25T11:39:36.574Z,-1.70
2019-01-25T11:42:24.254Z,-1.70
2019-01-25T11:45:12.204Z,-1.60
2019-01-25T11:47:59.961Z,-1.50
2019-01-25T11:50:47.735Z,-1.50
2019-01-25T11:53:35.933Z,-1.50
2019-01-25T11:56:23.604Z,-1.40
2019-01-25T11:59:11.633Z,-1.30
2019-01-25T12:01:59.236Z,-1.20
2019-01-25T12:04:47.038Z,-1.20
2019-01-25T12:07:34.757Z,-1.10
2019-01-25T12:10:24.717Z,-1.10
2019-01-25T12:13:16.265Z,-1.00
2019-01-25T12:16:01.850Z,-1.00
2019-01-25T12:18:49.190Z,-0.90
2019-01-25T12:21:36.768Z,-0.90
2019-01-25T12:24:24.454Z,-0.80
2019-01-25T12:27:12.304Z,-0.70
2019-01-25T12:30:00.350Z,-0.70
2019-01-25T12:32:48.372Z,-0.80
2019-01-25T12:35:38.725Z,-0.70
2019-01-25T12:38:26.233Z,-0.70
2019-01-25T12:41:13.661Z,-0.60
2019-01-25T12:44:01.508Z,-0.60
2019-01-25T12:46:49.233Z,-0.70
2019-01-25T12:49:36.769Z,-0.70
2019-01-25T12:52:24.792Z,-0.60
2019-01-25T12:55:12.494Z,-0.70
2019-01-25T12:58:00.285Z,-0.70
2019-01-25T13:00:49.964Z,-0.70
2019-01-25T13:03:37.637Z,-0.70
2019-01-25T13:06:25.322Z,-0.60
2019-01-25T13:09:12.973Z,-0.50
2019-01-25T13:12:00.930Z,-0.50
2019-01-25T13:14:48.739Z,-0.50
2019-01-25T13:17:36.616Z,-0.50
2019-01-25T13:20:26.099Z,-0.40
2019-01-25T13:23:13.730Z,-0.30
2019-01-25T13:26:01.648Z,-0.30
2019-01-25T13:28:49.583Z,-0.20
2019-01-25T13:31:37.958Z,-0.20
2019-01-25T13:34:26.389Z,-0.20
2019-01-25T13:37:14.186Z,-0.30
2019-01-25T13:40:01.665Z,-0.40
2019-01-25T13:42:49.905Z,-0.30
2019-01-25T13:45:37.813Z,-0.30
2019-01-25T13:48:25.845Z,-0.20
2019-01-25T13:51:13.556Z,-0.30
2019-01-25T13:54:00.979Z,-0.30
2019-01-25T13:56:48.620Z,-0.30
2019-01-25T13:59:36.513Z,-0.10
2019-01-25T14:02:24.240Z,-0.10
2019-01-25T14:05:12.943Z,-0.10
2019-01-25T14:08:00.515Z,-0.10
2019-01-25T14:10:48.182Z,-0.20
2019-01-25T14:13:35.747Z,-0.30
2019-01-25T14:16:23.850Z,-0.50
2019-01-25T14:19:11.524Z,-0.60
2019-01-25T14:21:59.258Z,-0.70
2019-01-25T14:24:46.741Z,-0.70
2019-01-25T14:27:34.201Z,-0.80
2019-01-25T14:30:25.042Z,-0.80
2019-01-25T14:33:12.992Z,-0.80
2019-01-25T14:36:01.292Z,-0.70
2019-01-25T14:38:48.803Z,-0.80
2019-01-25T14:41:36.601Z,-1.00
2019-01-25T14:44:24.653Z,-1.10
2019-01-25T14:47:12.288Z,-1.10
2019-01-25T14:50:00.288Z,-1.10
2019-01-25T14:52:48.602Z,-1.20
2019-01-25T14:55:36.342Z,-1.10
2019-01-25T14:58:24.305Z,-1.10
2019-01-25T15:01:14.341Z,-1.10
2019-01-25T15:04:02.378Z,-1.10
2019-01-25T15:06:50.296Z,-1.10
2019-01-25T15:09:38.148Z,-1.20
2019-01-25T15:12:25.913Z,-1.30
2019-01-25T15:15:14.037Z,-1.30
2019-01-25T15:18:01.732Z,-1.40
2019-01-25T15:20:49.181Z,-1.40
2019-01-25T15:23:37.283Z,-1.40
2019-01-25T15:26:25.345Z,-1.50
2019-01-25T15:29:13.130Z,-1.50
2019-01-25T15:32:01.217Z,-1.60
2019-01-25T15:34:48.876Z,-1.60
2019-01-25T15:37:36.742Z,-1.60
2019-01-25T15:40:24.448Z,-1.70
2019-01-25T15:43:12.121Z,-1.70
2019-01-25T15:45:59.757Z,-1.80
2019-01-25T15:48:47.642Z,-1.80
2019-01-25T15:51:35.695Z,-1.80
2019-01-25T15:54:23.199Z,-1.80
2019-01-25T15:57:10.963Z,-1.90
2019-01-25T15:59:58.614Z,-2.00
2019-01-25T16:02:46.753Z,-2.00
2019-01-25T16:05:34.141Z,-2.00
2019-01-25T16:08:21.615Z,-2.10
2019-01-25T16:11:09.536Z,-2.20
2019-01-25T16:13:57.508Z,-2.20
2019-01-25T16:16:45.513Z,-2.20
2019-01-25T16:19:33.053Z,-2.30
2019-01-25T16:22:20.651Z,-2.30
2019-01-25T16:25:11.041Z,-2.50
2019-01-25T16:27:59.100Z,-2.50
2019-01-25T16:30:47.669Z,-2.50
2019-01-25T16:33:35.670Z,-2.60
2019-01-25T16:36:23.412Z,-2.60
2019-01-25T16:39:11.349Z,-2.60
2019-01-25T16:41:59.506Z,-2.60
2019-01-25T16:44:47.058Z,-2.50
2019-01-25T16:47:34.766Z,-2.50
2019-01-25T16:50:23.925Z,-2.50
2019-01-25T16:53:13.334Z,-2.60
2019-01-25T16:56:00.949Z,-2.60
2019-01-25T16:58:48.658Z,-2.60
2019-01-25T17:01:37.082Z,-2.70
2019-01-25T17:04:24.541Z,-2.80
2019-01-25T17:07:12.689Z,-2.80
2019-01-25T17:10:00.612Z,-2.90
2019-01-25T17:12:48.348Z,-3.10
2019-01-25T17:15:36.563Z,-3.20
2019-01-25T17:18:24.945Z,-3.30
2019-01-25T17:21:12.657Z,-3.40
2019-01-25T17:24:00.225Z,-3.60
2019-01-25T17:26:48.189Z,-3.80
2019-01-25T17:29:36.327Z,-3.90
2019-01-25T17:32:24.698Z,-4.00
2019-01-25T17:35:12.535Z,-4.00
2019-01-25T17:38:00.874Z,-4.00
2019-01-25T17:40:48.698Z,-4.10
2019-01-25T17:43:37.011Z,-4.10
2019-01-25T17:46:28.390Z,-4.10
2019-01-25T17:49:16.293Z,-4.20
2019-01-25T17:52:04.116Z,-4.20
2019-01-25T17:54:52.409Z,-4.20
2019-01-25T17:57:40.302Z,-4.20
2019-01-25T18:00:51.717Z,-4.40
2019-01-25T18:03:39.396Z,-4.40
2019-01-25T18:06:27.371Z,-4.40
2019-01-25T18:09:15.372Z,-4.50
2019-01-25T18:12:03.904Z,-4.50
2019-01-25T18:14:51.974Z,-4.60
2019-01-25T18:17:39.599Z,-4.60
2019-01-25T18:20:27.268Z,-4.70
2019-01-25T18:23:15.453Z,-4.80
2019-01-25T18:26:15.609Z,-4.90
2019-01-25T18:29:08.049Z,-5.00
2019-01-25T18:31:55.704Z,-5.00
2019-01-25T18:34:43.337Z,-5.10
2019-01-25T18:37:31.074Z,-5.20
2019-01-25T18:40:18.749Z,-5.30
2019-01-25T18:43:06.835Z,-5.30
2019-01-25T18:45:54.605Z,-5.40
2019-01-25T18:48:42.620Z,-5.40
2019-01-25T18:51:30.671Z,-5.40
2019-01-25T18:54:18.648Z,-5.40
2019-01-25T18:57:07.452Z,-5.50
2019-01-25T18:59:54.889Z,-5.60
2019-01-25T19:02:43.044Z,-5.70
2019-01-25T19:05:30.878Z,-5.80
2019-01-25T19:08:21.273Z,-5.80
2019-01-25T19:11:10.669Z,-5.90
2019-01-25T19:13:58.245Z,-5.90
2019-01-25T19:16:48.923Z,-5.90
2019-01-25T19:19:36.573Z,-6.00
2019-01-25T19:22:26.947Z,-6.10
2019-01-25T19:25:14.954Z,-6.10
2019-01-25T19:28:02.433Z,-6.10
2019-01-25T19:30:50.468Z,-6.20
2019-01-25T19:33:38.237Z,-6.20
2019-01-25T19:36:26.569Z,-6.30
2019-01-25T19:39:15.568Z,-6.30
2019-01-25T19:42:02.980Z,-6.30
2019-01-25T19:44:50.429Z,-6.40
2019-01-25T19:47:38.276Z,-6.40
2019-01-25T19:50:26.296Z,-6.40
2019-01-25T19:53:13.818Z,-6.40
2019-01-25T19:56:01.557Z,-6.40
2019-01-25T19:58:49.428Z,-6.50
2019-01-25T20:01:37.135Z,-6.50
2019-01-25T20:04:24.836Z,-6.60
2019-01-25T20:07:12.636Z,-6.60
2019-01-25T20:10:00.332Z,-6.60
2019-01-25T20:12:48.161Z,-6.70
2019-01-25T20:15:35.829Z,-6.80
2019-01-25T20:18:23.770Z,-6.80
2019-01-25T20:21:11.376Z,-6.80
2019-01-25T20:23:59.092Z,-6.90
2019-01-25T20:26:47.129Z,-6.90
2019-01-25T20:29:35.021Z,-6.90
2019-01-25T20:32:22.549Z,-7.00
2019-01-25T20:35:12.381Z,-7.10
2019-01-25T20:38:01.072Z,-7.10
2019-01-25T20:40:48.428Z,-7.20
2019-01-25T20:43:36.437Z,-7.20
2019-01-25T20:46:24.104Z,-7.20
2019-01-25T20:49:11.882Z,-7.20
2019-01-25T20:51:59.577Z,-7.20
2019-01-25T20:54:47.302Z,-7.20
2019-01-25T20:57:34.945Z,-7.20
2019-01-25T21:00:30.679Z,-7.30
2019-01-25T21:03:18.367Z,-7.30
2019-01-25T21:06:06.169Z,-7.20
2019-01-25T21:08:54.001Z,-7.20
2019-01-25T21:11:41.672Z,-7.20
2019-01-25T21:14:29.416Z,-7.20
2019-01-25T21:17:16.916Z,-7.10
2019-01-25T21:20:08.044Z,-7.10
2019-01-25T21:22:55.811Z,-7.10
2019-01-25T21:25:43.808Z,-7.10
2019-01-25T21:28:31.785Z,-7.00
2019-01-25T21:31:19.728Z,-7.00
2019-01-25T21:34:08.007Z,-7.00
2019-01-25T21:36:55.639Z,-6.90
2019-01-25T21:39:43.580Z,-6.80
2019-01-25T21:42:31.723Z,-6.80
2019-01-25T21:45:21.175Z,-6.80
2019-01-25T21:48:14.662Z,-6.70
2019-01-25T21:51:02.634Z,-6.60
2019-01-25T21:53:50.774Z,-6.50
2019-01-25T21:56:38.433Z,-6.50
2019-01-25T21:59:26.247Z,-6.50
2019-01-25T22:02:14.058Z,-6.40
2019-01-25T22:05:02.090Z,-6.30
2019-01-25T22:07:50.003Z,-6.30
2019-01-25T22:10:41.080Z,-6.30
2019-01-25T22:13:28.965Z,-6.20
2019-01-25T22:16:16.696Z,-6.20
2019-01-25T22:19:04.295Z,-6.10
2019-01-25T22:21:51.937Z,-6.10
2019-01-25T22:24:40.109Z,-6.00
2019-01-25T22:27:28.128Z,-5.90
2019-01-25T22:30:18.297Z,-5.90
2019-01-25T22:33:06.244Z,-5.90
2019-01-25T22:35:54.197Z,-5.90
2019-01-25T22:38:41.865Z,-5.80
2019-01-25T22:41:29.829Z,-5.80
2019-01-25T22:44:17.779Z,-5.80
2019-01-25T22:47:05.252Z,-5.80
2019-01-25T22:49:53.386Z,-5.70
2019-01-25T22:52:41.442Z,-5.70
2019-01-25T22:55:29.378Z,-5.70
2019-01-25T22:58:17.560Z,-5.70
2019-01-25T23:01:32.004Z,-5.70
2019-01-25T23:04:42.264Z,-5.70
2019-01-25T23:07:31.645Z,-5.70
2019-01-25T23:10:21.154Z,-5.80
2019-01-25T23:13:09.117Z,-6.00
2019-01-25T23:15:56.754Z,-6.00
2019-01-25T23:18:44.614Z,-6.00
2019-01-25T23:21:32.479Z,-6.00
2019-01-25T23:24:20.867Z,-6.00
2019-01-25T23:27:09.204Z,-5.90
2019-01-25T23:29:56.759Z,-5.90
2019-01-25T23:32:45.601Z,-5.90
2019-01-25T23:35:33.576Z,-5.80
2019-01-25T23:38:21.859Z,-5.70
2019-01-25T23:41:09.496Z,-5.80
2019-01-25T23:43:57.026Z,-5.80
2019-01-25T23:46:44.494Z,-5.90
2019-01-25T23:49:32.460Z,-5.90
2019-01-25T23:52:20.223Z,-5.90
2019-01-25T23:55:09.087Z,-5.90
2019-01-25T23:57:57.190Z,-5.80
